الصفحة الرئيسية
METAR-TAF:

METAR-TAF

مطار :

باتام, إندونيسيا

دائرة عرض: 01-07-15N, خط طول: 104-07-07E, ارتفاع: 38 متر

مراقبة الطقس الحالي

تاريخ ووقت الإصدار 38 دقيقة قبل الساعة 17:00UTC
ريح 3 عقدة من الجنوب/الجنوب الغربي
درجة الحرارة 27°درجة مئوية
الرطوبة 94%
ضغط 1010 hPa
الرؤية 10 كم أو أكثر
غيوم قليلة على ارتفاع 1400 قدم

METAR: WIDD 181700Z 21003KT 9999 FEW014 27/26 Q1010 NOSIG

زمن: 00:38 (17:38 UTC)

توقعات

تاريخ ووقت الإصدار 6ساعات و 38 دقيقة قبل الساعة 11:00UTC
التوقعات صالحة من18 الساعة 12 UTC إلى 19 الساعة 12 UTC
ريح 4 عقدة من الجنوب الشرقي
الرؤية: 9000 متر
غيوم متفرقة على ارتفاع 1400 قدم

TAF: WIDD 181100Z 1812/1912 14004KT 9000 SCT014

أرصاد الطقس والتوقعات من أكثر من 4000 مطار (تقارير الطقس للمطار METAR والتنبؤ بالطقس بالمطارTAF).

المحطات المتاحة هي النقط الصفراء والحمراء على الخريطة.

حرك المؤشر فوق النقطة لمعرفة اسم المحطة.

ثم انقر لمعرفة أرصاد وتوقعات الطقس.

لتغيير الخارطة: اضغط على الأزرار الخضراء مع رمز الصليب الأسود للتكبير. على الزر الأخضر مع شرطة للتصغير، أو على الأسهم الخضراء للخرائط المجاورة.


METAR-TAF: